sensor_id;sensor_type;location;lat;lon;timestamp;pressure;altitude;pressure_sealevel;temperature;humidity
42591;BME280;28218;53.342;-6.216;2023-05-19T00:01:55;102819.34;;;16.43;100.00
42591;BME280;28218;53.342;-6.216;2023-05-19T00:04:26;102819.47;;;16.42;100.00
42591;BME280;28218;53.342;-6.216;2023-05-19T00:06:55;102831.81;;;16.43;100.00
42591;BME280;28218;53.342;-6.216;2023-05-19T00:09:25;102822.84;;;16.44;100.00
42591;BME280;28218;53.342;-6.216;2023-05-19T00:11:54;102828.00;;;16.45;100.00
42591;BME280;28218;53.342;-6.216;2023-05-19T00:14:24;102831.66;;;16.44;100.00
42591;BME280;28218;53.342;-6.216;2023-05-19T00:16:58;102827.00;;;16.46;100.00
42591;BME280;28218;53.342;-6.216;2023-05-19T00:19:29;102827.69;;;16.48;100.00
42591;BME280;28218;53.342;-6.216;2023-05-19T00:21:58;102836.66;;;16.47;100.00
42591;BME280;28218;53.342;-6.216;2023-05-19T00:24:26;102823.50;;;16.46;100.00
42591;BME280;28218;53.342;-6.216;2023-05-19T00:26:55;102830.13;;;16.42;100.00
42591;BME280;28218;53.342;-6.216;2023-05-19T00:29:23;102824.88;;;16.50;100.00
42591;BME280;28218;53.342;-6.216;2023-05-19T00:31:51;102828.69;;;16.47;100.00
42591;BME280;28218;53.342;-6.216;2023-05-19T00:34:19;102838.63;;;16.45;100.00
42591;BME280;28218;53.342;-6.216;2023-05-19T00:36:49;102834.16;;;16.46;100.00
42591;BME280;28218;53.342;-6.216;2023-05-19T00:39:17;102835.97;;;16.45;100.00
42591;BME280;28218;53.342;-6.216;2023-05-19T00:41:46;102840.47;;;16.45;100.00
42591;BME280;28218;53.342;-6.216;2023-05-19T00:44:14;102844.41;;;16.41;100.00
42591;BME280;28218;53.342;-6.216;2023-05-19T00:46:42;102846.47;;;16.47;100.00
42591;BME280;28218;53.342;-6.216;2023-05-19T00:49:11;102841.00;;;16.48;100.00
42591;BME280;28218;53.342;-6.216;2023-05-19T00:51:39;102848.16;;;16.48;100.00
42591;BME280;28218;53.342;-6.216;2023-05-19T00:54:09;102849.66;;;16.50;100.00
42591;BME280;28218;53.342;-6.216;2023-05-19T00:56:38;102855.66;;;16.52;100.00
42591;BME280;28218;53.342;-6.216;2023-05-19T00:59:06;102853.97;;;16.51;100.00
42591;BME280;28218;53.342;-6.216;2023-05-19T01:01:35;102856.13;;;16.48;100.00
42591;BME280;28218;53.342;-6.216;2023-05-19T01:04:03;102860.63;;;16.47;100.00
42591;BME280;28218;53.342;-6.216;2023-05-19T01:06:35;102870.72;;;16.44;100.00
42591;BME280;28218;53.342;-6.216;2023-05-19T01:09:04;102874.97;;;16.36;100.00
42591;BME280;28218;53.342;-6.216;2023-05-19T01:11:34;102863.13;;;16.31;100.00
42591;BME280;28218;53.342;-6.216;2023-05-19T01:14:03;102865.34;;;16.18;100.00
42591;BME280;28218;53.342;-6.216;2023-05-19T01:16:36;102873.03;;;16.03;100.00
42591;BME280;28218;53.342;-6.216;2023-05-19T01:19:15;102875.47;;;15.96;100.00
42591;BME280;28218;53.342;-6.216;2023-05-19T01:22:21;102877.75;;;15.91;100.00
42591;BME280;28218;53.342;-6.216;2023-05-19T01:25:23;102879.88;;;15.88;100.00
42591;BME280;28218;53.342;-6.216;2023-05-19T01:31:09;102858.88;;;15.84;100.00
42591;BME280;28218;53.342;-6.216;2023-05-19T01:33:39;102856.38;;;15.83;100.00
42591;BME280;28218;53.342;-6.216;2023-05-19T01:36:10;102853.06;;;15.81;100.00
42591;BME280;28218;53.342;-6.216;2023-05-19T01:38:39;102853.06;;;15.81;100.00
42591;BME280;28218;53.342;-6.216;2023-05-19T01:41:09;102841.06;;;15.77;100.00
42591;BME280;28218;53.342;-6.216;2023-05-19T01:43:39;102848.69;;;15.80;100.00
42591;BME280;28218;53.342;-6.216;2023-05-19T01:46:09;102847.75;;;15.81;100.00
42591;BME280;28218;53.342;-6.216;2023-05-19T01:48:38;102847.88;;;15.79;100.00
42591;BME280;28218;53.342;-6.216;2023-05-19T01:51:06;102849.69;;;15.79;100.00
42591;BME280;28218;53.342;-6.216;2023-05-19T01:53:35;102854.84;;;15.80;100.00
42591;BME280;28218;53.342;-6.216;2023-05-19T01:56:04;102857.38;;;15.82;100.00
42591;BME280;28218;53.342;-6.216;2023-05-19T01:58:37;102859.22;;;15.81;100.00
42591;BME280;28218;53.342;-6.216;2023-05-19T02:01:15;102863.69;;;15.81;100.00
42591;BME280;28218;53.342;-6.216;2023-05-19T02:04:00;102869.28;;;15.78;100.00
42591;BME280;28218;53.342;-6.216;2023-05-19T02:06:40;102881.88;;;15.76;100.00
42591;BME280;28218;53.342;-6.216;2023-05-19T02:09:12;102881.88;;;15.76;100.00
42591;BME280;28218;53.342;-6.216;2023-05-19T02:11:46;102886.25;;;15.77;100.00
42591;BME280;28218;53.342;-6.216;2023-05-19T02:14:20;102876.56;;;15.76;100.00
42591;BME280;28218;53.342;-6.216;2023-05-19T02:16:54;102877.72;;;15.73;100.00
42591;BME280;28218;53.342;-6.216;2023-05-19T02:19:25;102882.66;;;15.68;100.00
42591;BME280;28218;53.342;-6.216;2023-05-19T02:21:54;102882.34;;;15.62;100.00
42591;BME280;28218;53.342;-6.216;2023-05-19T02:24:23;102882.28;;;15.53;100.00
42591;BME280;28218;53.342;-6.216;2023-05-19T02:26:52;102885.91;;;15.52;100.00
42591;BME280;28218;53.342;-6.216;2023-05-19T02:29:21;102890.69;;;15.49;100.00
42591;BME280;28218;53.342;-6.216;2023-05-19T02:31:49;102889.88;;;15.48;100.00
42591;BME280;28218;53.342;-6.216;2023-05-19T02:34:19;102892.66;;;15.47;100.00
42591;BME280;28218;53.342;-6.216;2023-05-19T02:36:47;102898.56;;;15.41;100.00
42591;BME280;28218;53.342;-6.216;2023-05-19T02:39:16;102905.53;;;15.42;100.00
42591;BME280;28218;53.342;-6.216;2023-05-19T02:41:45;102899.56;;;15.40;100.00
42591;BME280;28218;53.342;-6.216;2023-05-19T02:44:13;102904.47;;;15.34;100.00
42591;BME280;28218;53.342;-6.216;2023-05-19T02:46:41;102907.56;;;15.30;100.00
42591;BME280;28218;53.342;-6.216;2023-05-19T02:49:10;102905.88;;;15.29;100.00
42591;BME280;28218;53.342;-6.216;2023-05-19T02:51:39;102910.66;;;15.25;100.00
42591;BME280;28218;53.342;-6.216;2023-05-19T02:54:08;102918.22;;;15.20;100.00
42591;BME280;28218;53.342;-6.216;2023-05-19T02:56:36;102905.38;;;15.16;100.00
42591;BME280;28218;53.342;-6.216;2023-05-19T02:59:04;102913.47;;;15.14;100.00
42591;BME280;28218;53.342;-6.216;2023-05-19T03:01:33;102922.41;;;15.13;100.00
42591;BME280;28218;53.342;-6.216;2023-05-19T03:04:03;102917.69;;;15.07;100.00
42591;BME280;28218;53.342;-6.216;2023-05-19T03:06:32;102916.47;;;15.01;100.00
42591;BME280;28218;53.342;-6.216;2023-05-19T03:09:02;102917.28;;;15.02;100.00
42591;BME280;28218;53.342;-6.216;2023-05-19T03:11:30;102910.03;;;14.94;100.00
42591;BME280;28218;53.342;-6.216;2023-05-19T03:13:59;102921.91;;;14.90;100.00
42591;BME280;28218;53.342;-6.216;2023-05-19T03:16:27;102918.84;;;14.85;100.00
42591;BME280;28218;53.342;-6.216;2023-05-19T03:18:55;102926.66;;;14.87;100.00
42591;BME280;28218;53.342;-6.216;2023-05-19T03:21:24;102921.09;;;14.80;100.00
42591;BME280;28218;53.342;-6.216;2023-05-19T03:23:52;102917.06;;;14.76;100.00
42591;BME280;28218;53.342;-6.216;2023-05-19T03:26:22;102918.03;;;14.75;100.00
42591;BME280;28218;53.342;-6.216;2023-05-19T03:28:51;102916.38;;;14.74;100.00
42591;BME280;28218;53.342;-6.216;2023-05-19T03:31:20;102908.53;;;14.72;100.00
42591;BME280;28218;53.342;-6.216;2023-05-19T03:33:48;102912.31;;;14.70;100.00
42591;BME280;28218;53.342;-6.216;2023-05-19T03:36:16;102913.84;;;14.72;100.00
42591;BME280;28218;53.342;-6.216;2023-05-19T03:38:44;102920.44;;;14.68;100.00
42591;BME280;28218;53.342;-6.216;2023-05-19T03:41:13;102925.88;;;14.67;100.00
42591;BME280;28218;53.342;-6.216;2023-05-19T03:43:42;102926.16;;;14.64;100.00
42591;BME280;28218;53.342;-6.216;2023-05-19T03:46:11;102923.94;;;14.69;100.00
42591;BME280;28218;53.342;-6.216;2023-05-19T03:48:39;102925.44;;;14.71;100.00
42591;BME280;28218;53.342;-6.216;2023-05-19T03:51:08;102929.75;;;14.72;100.00
42591;BME280;28218;53.342;-6.216;2023-05-19T03:53:36;102939.00;;;14.68;100.00
42591;BME280;28218;53.342;-6.216;2023-05-19T03:56:05;102942.34;;;14.70;100.00
42591;BME280;28218;53.342;-6.216;2023-05-19T03:58:33;102939.00;;;14.68;100.00
42591;BME280;28218;53.342;-6.216;2023-05-19T04:01:04;102943.59;;;14.76;100.00
42591;BME280;28218;53.342;-6.216;2023-05-19T04:03:32;102944.84;;;14.72;100.00
42591;BME280;28218;53.342;-6.216;2023-05-19T04:06:00;102950.16;;;14.72;100.00
42591;BME280;28218;53.342;-6.216;2023-05-19T04:08:28;102945.44;;;14.66;100.00
42591;BME280;28218;53.342;-6.216;2023-05-19T04:10:57;102947.25;;;14.65;100.00
42591;BME280;28218;53.342;-6.216;2023-05-19T04:13:25;102942.09;;;14.64;100.00
42591;BME280;28218;53.342;-6.216;2023-05-19T04:15:54;102944.88;;;14.62;100.00
42591;BME280;28218;53.342;-6.216;2023-05-19T04:18:24;102941.69;;;14.59;100.00
42591;BME280;28218;53.342;-6.216;2023-05-19T04:20:54;102943.47;;;14.58;100.00
42591;BME280;28218;53.342;-6.216;2023-05-19T04:23:23;102951.56;;;14.56;100.00
42591;BME280;28218;53.342;-6.216;2023-05-19T04:25:51;102956.88;;;14.56;100.00
42591;BME280;28218;53.342;-6.216;2023-05-19T04:28:20;102968.31;;;14.57;100.00
42591;BME280;28218;53.342;-6.216;2023-05-19T04:30:49;102967.75;;;14.53;100.00
42591;BME280;28218;53.342;-6.216;2023-05-19T04:33:18;102968.44;;;14.46;100.00
42591;BME280;28218;53.342;-6.216;2023-05-19T04:35:48;102970.78;;;14.39;100.00
42591;BME280;28218;53.342;-6.216;2023-05-19T04:38:17;102968.44;;;14.36;100.00
42591;BME280;28218;53.342;-6.216;2023-05-19T04:40:45;102973.75;;;14.36;100.00
42591;BME280;28218;53.342;-6.216;2023-05-19T04:43:16;102985.75;;;14.40;100.00
42591;BME280;28218;53.342;-6.216;2023-05-19T04:45:44;102985.19;;;14.37;100.00
42591;BME280;28218;53.342;-6.216;2023-05-19T04:48:16;102979.03;;;14.36;100.00
42591;BME280;28218;53.342;-6.216;2023-05-19T04:50:44;102983.63;;;14.34;100.00
42591;BME280;28218;53.342;-6.216;2023-05-19T04:53:16;102990.47;;;14.37;100.00
42591;BME280;28218;53.342;-6.216;2023-05-19T04:55:44;102992.31;;;14.36;100.00
42591;BME280;28218;53.342;-6.216;2023-05-19T04:58:12;102998.28;;;14.38;100.00
42591;BME280;28218;53.342;-6.216;2023-05-19T05:00:42;103002.63;;;14.39;100.00
42591;BME280;28218;53.342;-6.216;2023-05-19T05:03:11;102995.06;;;14.35;100.00
42591;BME280;28218;53.342;-6.216;2023-05-19T05:05:40;102997.59;;;14.36;100.00
42591;BME280;28218;53.342;-6.216;2023-05-19T05:08:09;102993.97;;;14.37;100.00
42591;BME280;28218;53.342;-6.216;2023-05-19T05:10:38;102997.59;;;14.36;100.00
42591;BME280;28218;53.342;-6.216;2023-05-19T05:13:07;102995.94;;;14.35;100.00
42591;BME280;28218;53.342;-6.216;2023-05-19T05:15:37;103004.00;;;14.33;100.00
42591;BME280;28218;53.342;-6.216;2023-05-19T05:18:07;103001.50;;;14.32;100.00
42591;BME280;28218;53.342;-6.216;2023-05-19T05:20:36;102994.25;;;14.34;100.00
42591;BME280;28218;53.342;-6.216;2023-05-19T05:23:05;102999.94;;;14.29;100.00
42591;BME280;28218;53.342;-6.216;2023-05-19T05:25:36;102999.94;;;14.29;100.00
42591;BME280;28218;53.342;-6.216;2023-05-19T05:28:06;103001.09;;;14.27;100.00
42591;BME280;28218;53.342;-6.216;2023-05-19T05:30:35;103000.09;;;14.28;100.00
42591;BME280;28218;53.342;-6.216;2023-05-19T05:33:03;102999.53;;;14.34;100.00
42591;BME280;28218;53.342;-6.216;2023-05-19T05:35:32;102991.88;;;14.31;100.00
42591;BME280;28218;53.342;-6.216;2023-05-19T05:38:01;102991.72;;;14.32;100.00
42591;BME280;28218;53.342;-6.216;2023-05-19T05:40:29;103000.38;;;14.35;100.00
42591;BME280;28218;53.342;-6.216;2023-05-19T05:42:58;102998.59;;;14.35;100.00
42591;BME280;28218;53.342;-6.216;2023-05-19T05:45:27;102990.63;;;14.35;100.00
42591;BME280;28218;53.342;-6.216;2023-05-19T05:47:56;102993.72;;;14.40;100.00
42591;BME280;28218;53.342;-6.216;2023-05-19T05:50:25;102996.47;;;14.39;100.00
42591;BME280;28218;53.342;-6.216;2023-05-19T05:52:54;102994.53;;;14.41;100.00
42591;BME280;28218;53.342;-6.216;2023-05-19T05:55:25;102996.78;;;14.45;100.00
42591;BME280;28218;53.342;-6.216;2023-05-19T05:57:53;102998.34;;;14.48;100.00
42591;BME280;28218;53.342;-6.216;2023-05-19T06:00:22;102999.28;;;14.47;100.00
42591;BME280;28218;53.342;-6.216;2023-05-19T06:02:55;102993.44;;;14.53;100.00
42591;BME280;28218;53.342;-6.216;2023-05-19T06:05:25;103000.56;;;14.52;100.00
42591;BME280;28218;53.342;-6.216;2023-05-19T06:07:53;103000.47;;;14.54;100.00
42591;BME280;28218;53.342;-6.216;2023-05-19T06:10:22;102986.78;;;14.59;100.00
42591;BME280;28218;53.342;-6.216;2023-05-19T06:12:50;102981.16;;;14.62;100.00
42591;BME280;28218;53.342;-6.216;2023-05-19T06:15:20;102994.44;;;14.71;100.00
42591;BME280;28218;53.342;-6.216;2023-05-19T06:17:49;102990.69;;;14.74;100.00
42591;BME280;28218;53.342;-6.216;2023-05-19T06:20:18;102991.94;;;14.79;100.00
42591;BME280;28218;53.342;-6.216;2023-05-19T06:22:47;102999.47;;;14.84;100.00
42591;BME280;28218;53.342;-6.216;2023-05-19T06:25:15;103000.88;;;14.88;100.00
42591;BME280;28218;53.342;-6.216;2023-05-19T06:27:43;103000.16;;;14.86;100.00
42591;BME280;28218;53.342;-6.216;2023-05-19T06:30:12;103003.38;;;14.90;100.00
42591;BME280;28218;53.342;-6.216;2023-05-19T06:32:41;102998.47;;;14.95;100.00
42591;BME280;28218;53.342;-6.216;2023-05-19T06:35:09;102991.06;;;14.98;100.00
42591;BME280;28218;53.342;-6.216;2023-05-19T06:37:39;102993.47;;;15.01;100.00
42591;BME280;28218;53.342;-6.216;2023-05-19T06:40:08;102997.63;;;15.04;100.00
42591;BME280;28218;53.342;-6.216;2023-05-19T06:42:36;102993.97;;;15.05;100.00
42591;BME280;28218;53.342;-6.216;2023-05-19T06:45:05;102990.66;;;15.03;100.00
42591;BME280;28218;53.342;-6.216;2023-05-19T06:47:34;102985.63;;;15.00;100.00
42591;BME280;28218;53.342;-6.216;2023-05-19T06:50:03;102988.81;;;15.03;100.00
42591;BME280;28218;53.342;-6.216;2023-05-19T06:52:31;102989.81;;;15.02;100.00
42591;BME280;28218;53.342;-6.216;2023-05-19T06:55:01;102997.47;;;15.05;100.00
42591;BME280;28218;53.342;-6.216;2023-05-19T06:57:29;102991.75;;;15.10;100.00
42591;BME280;28218;53.342;-6.216;2023-05-19T06:59:57;102998.59;;;15.13;100.00
42591;BME280;28218;53.342;-6.216;2023-05-19T07:02:26;103006.69;;;15.21;100.00
42591;BME280;28218;53.342;-6.216;2023-05-19T07:04:54;103004.44;;;15.26;100.00
42591;BME280;28218;53.342;-6.216;2023-05-19T07:07:23;103007.50;;;15.31;100.00
42591;BME280;28218;53.342;-6.216;2023-05-19T07:09:52;103010.56;;;15.36;100.00
42591;BME280;28218;53.342;-6.216;2023-05-19T07:12:22;103011.13;;;15.40;100.00
42591;BME280;28218;53.342;-6.216;2023-05-19T07:14:52;103013.19;;;15.46;100.00
42591;BME280;28218;53.342;-6.216;2023-05-19T07:17:20;103026.75;;;15.43;100.00
42591;BME280;28218;53.342;-6.216;2023-05-19T07:19:48;103031.09;;;15.44;100.00
42591;BME280;28218;53.342;-6.216;2023-05-19T07:22:17;103030.28;;;15.43;100.00
42591;BME280;28218;53.342;-6.216;2023-05-19T07:24:45;103029.13;;;15.46;100.00
42591;BME280;28218;53.342;-6.216;2023-05-19T07:27:14;103031.94;;;15.44;100.00
42591;BME280;28218;53.342;-6.216;2023-05-19T07:29:43;103038.25;;;15.43;100.00
42591;BME280;28218;53.342;-6.216;2023-05-19T07:32:12;103044.25;;;15.36;100.00
42591;BME280;28218;53.342;-6.216;2023-05-19T07:34:40;103056.56;;;15.37;100.00
42591;BME280;28218;53.342;-6.216;2023-05-19T07:37:08;103051.53;;;15.43;100.00
42591;BME280;28218;53.342;-6.216;2023-05-19T07:39:36;103054.47;;;15.40;100.00
42591;BME280;28218;53.342;-6.216;2023-05-19T07:42:05;103056.53;;;15.46;100.00
42591;BME280;28218;53.342;-6.216;2023-05-19T07:44:33;103050.94;;;15.49;100.00
42591;BME280;28218;53.342;-6.216;2023-05-19T07:47:03;103045.47;;;15.51;100.00
42591;BME280;28218;53.342;-6.216;2023-05-19T07:49:31;103041.00;;;15.51;100.00
42591;BME280;28218;53.342;-6.216;2023-05-19T07:51:59;103047.03;;;15.53;100.00
42591;BME280;28218;53.342;-6.216;2023-05-19T07:54:28;103049.09;;;15.59;100.00
42591;BME280;28218;53.342;-6.216;2023-05-19T07:56:56;103046.16;;;15.63;100.00
42591;BME280;28218;53.342;-6.216;2023-05-19T07:59:24;103048.66;;;15.74;100.00
42591;BME280;28218;53.342;-6.216;2023-05-19T08:01:53;103046.94;;;15.82;100.00
42591;BME280;28218;53.342;-6.216;2023-05-19T08:04:23;103043.03;;;15.87;100.00
42591;BME280;28218;53.342;-6.216;2023-05-19T08:06:51;103049.97;;;15.97;100.00
42591;BME280;28218;53.342;-6.216;2023-05-19T08:09:20;103043.75;;;16.06;100.00
42591;BME280;28218;53.342;-6.216;2023-05-19T08:11:48;103036.19;;;16.12;100.00
42591;BME280;28218;53.342;-6.216;2023-05-19T08:14:17;103034.44;;;16.20;100.00
42591;BME280;28218;53.342;-6.216;2023-05-19T08:16:48;103032.03;;;16.27;100.00
42591;BME280;28218;53.342;-6.216;2023-05-19T08:19:16;103048.53;;;16.30;100.00
42591;BME280;28218;53.342;-6.216;2023-05-19T08:21:46;103053.31;;;16.27;100.00
42591;BME280;28218;53.342;-6.216;2023-05-19T08:24:15;103053.63;;;16.24;100.00
42591;BME280;28218;53.342;-6.216;2023-05-19T08:26:43;103059.00;;;16.32;100.00
42591;BME280;28218;53.342;-6.216;2023-05-19T08:29:11;103060.72;;;16.33;100.00
42591;BME280;28218;53.342;-6.216;2023-05-19T08:31:40;103056.06;;;16.35;100.00
42591;BME280;28218;53.342;-6.216;2023-05-19T08:34:08;103061.00;;;16.30;100.00
42591;BME280;28218;53.342;-6.216;2023-05-19T08:36:36;103068.97;;;16.30;100.00
42591;BME280;28218;53.342;-6.216;2023-05-19T08:39:06;103069.66;;;16.32;100.00
42591;BME280;28218;53.342;-6.216;2023-05-19T08:41:34;103066.03;;;16.33;100.00
42591;BME280;28218;53.342;-6.216;2023-05-19T08:44:03;103062.38;;;16.34;100.00
42591;BME280;28218;53.342;-6.216;2023-05-19T08:46:32;103065.72;;;16.36;100.00
42591;BME280;28218;53.342;-6.216;2023-05-19T08:49:04;103073.31;;;16.31;100.00
42591;BME280;28218;53.342;-6.216;2023-05-19T08:51:38;103073.63;;;16.28;100.00
42591;BME280;28218;53.342;-6.216;2023-05-19T08:54:14;103067.22;;;16.21;100.00
42591;BME280;28218;53.342;-6.216;2023-05-19T08:56:43;103060.75;;;16.23;100.00
42591;BME280;28218;53.342;-6.216;2023-05-19T08:59:12;103056.13;;;16.25;100.00
42591;BME280;28218;53.342;-6.216;2023-05-19T09:01:43;103056.78;;;16.27;100.00
42591;BME280;28218;53.342;-6.216;2023-05-19T09:04:12;103060.31;;;16.28;100.00
42591;BME280;28218;53.342;-6.216;2023-05-19T09:06:41;103067.31;;;16.29;100.00
42591;BME280;28218;53.342;-6.216;2023-05-19T09:09:12;103062.97;;;16.28;100.00
42591;BME280;28218;53.342;-6.216;2023-05-19T09:11:44;103062.00;;;16.29;100.00
42591;BME280;28218;53.342;-6.216;2023-05-19T09:14:12;103055.06;;;16.36;100.00
42591;BME280;28218;53.342;-6.216;2023-05-19T09:16:41;103044.13;;;16.39;100.00
42591;BME280;28218;53.342;-6.216;2023-05-19T09:19:12;103048.19;;;16.43;100.00
42591;BME280;28218;53.342;-6.216;2023-05-19T09:21:42;103046.91;;;16.47;100.00
42591;BME280;28218;53.342;-6.216;2023-05-19T09:24:13;103044.81;;;16.41;100.00
42591;BME280;28218;53.342;-6.216;2023-05-19T09:26:41;103048.19;;;16.43;100.00
42591;BME280;28218;53.342;-6.216;2023-05-19T09:29:10;103033.72;;;16.46;100.00
42591;BME280;28218;53.342;-6.216;2023-05-19T09:31:46;103036.94;;;16.49;100.00
42591;BME280;28218;53.342;-6.216;2023-05-19T09:34:16;103041.78;;;16.54;100.00
42591;BME280;28218;53.342;-6.216;2023-05-19T09:36:45;103039.34;;;16.60;100.00
42591;BME280;28218;53.342;-6.216;2023-05-19T09:39:18;103042.81;;;16.71;100.00
42591;BME280;28218;53.342;-6.216;2023-05-19T09:41:50;103041.38;;;16.76;100.00
42591;BME280;28218;53.342;-6.216;2023-05-19T09:44:23;103033.31;;;16.86;100.00
42591;BME280;28218;53.342;-6.216;2023-05-19T09:46:55;103027.06;;;16.95;100.00
42591;BME280;28218;53.342;-6.216;2023-05-19T09:49:25;103030.94;;;17.01;100.00
42591;BME280;28218;53.342;-6.216;2023-05-19T09:51:55;103036.47;;;17.07;100.00
42591;BME280;28218;53.342;-6.216;2023-05-19T09:54:25;103029.38;;;17.16;100.00
42591;BME280;28218;53.342;-6.216;2023-05-19T09:56:56;103036.97;;;17.29;100.00
42591;BME280;28218;53.342;-6.216;2023-05-19T09:59:27;103040.16;;;17.32;100.00
42591;BME280;28218;53.342;-6.216;2023-05-19T10:02:00;103042.00;;;17.32;100.00
42591;BME280;28218;53.342;-6.216;2023-05-19T10:04:29;103045.41;;;17.42;100.00
42591;BME280;28218;53.342;-6.216;2023-05-19T10:06:58;103039.72;;;17.45;100.00
42591;BME280;28218;53.342;-6.216;2023-05-19T10:09:28;103048.06;;;17.42;100.00
42591;BME280;28218;53.342;-6.216;2023-05-19T10:11:57;103051.56;;;17.43;100.00
42591;BME280;28218;53.342;-6.216;2023-05-19T10:14:27;103044.91;;;17.47;100.00
42591;BME280;28218;53.342;-6.216;2023-05-19T10:16:57;103043.75;;;17.49;100.00
42591;BME280;28218;53.342;-6.216;2023-05-19T10:19:26;103045.75;;;17.47;100.00
42591;BME280;28218;53.342;-6.216;2023-05-19T10:21:55;103042.41;;;17.45;100.00
42591;BME280;28218;53.342;-6.216;2023-05-19T10:24:25;103050.25;;;17.47;100.00
42591;BME280;28218;53.342;-6.216;2023-05-19T10:26:59;103050.25;;;17.47;100.00
42591;BME280;28218;53.342;-6.216;2023-05-19T10:29:32;103051.16;;;17.55;100.00
42591;BME280;28218;53.342;-6.216;2023-05-19T10:32:05;103051.50;;;17.60;100.00
42591;BME280;28218;53.342;-6.216;2023-05-19T10:34:53;103048.00;;;17.60;100.00
42591;BME280;28218;53.342;-6.216;2023-05-19T10:37:33;103051.50;;;17.60;100.00
42591;BME280;28218;53.342;-6.216;2023-05-19T10:40:09;103054.38;;;17.67;100.00
42591;BME280;28218;53.342;-6.216;2023-05-19T10:42:52;103052.97;;;17.81;100.00
42591;BME280;28218;53.342;-6.216;2023-05-19T10:45:29;103043.66;;;17.85;100.00
42591;BME280;28218;53.342;-6.216;2023-05-19T10:48:01;103052.84;;;17.91;100.00
42591;BME280;28218;53.342;-6.216;2023-05-19T10:50:35;103049.69;;;17.95;100.00
42591;BME280;28218;53.342;-6.216;2023-05-19T10:53:04;103053.88;;;17.98;100.00
42591;BME280;28218;53.342;-6.216;2023-05-19T10:55:45;103059.00;;;17.91;100.00
42591;BME280;28218;53.342;-6.216;2023-05-19T10:58:35;103050.00;;;17.92;100.00
42591;BME280;28218;53.342;-6.216;2023-05-19T11:01:06;103047.34;;;17.92;100.00
42591;BME280;28218;53.342;-6.216;2023-05-19T11:03:44;103057.88;;;17.94;100.00
42591;BME280;28218;53.342;-6.216;2023-05-19T11:06:20;103057.03;;;17.93;100.00
42591;BME280;28218;53.342;-6.216;2023-05-19T11:08:52;103062.69;;;17.90;100.00
42591;BME280;28218;53.342;-6.216;2023-05-19T11:11:21;103057.31;;;17.82;100.00
42591;BME280;28218;53.342;-6.216;2023-05-19T11:13:53;103058.94;;;17.75;100.00
42591;BME280;28218;53.342;-6.216;2023-05-19T11:16:26;103071.06;;;17.69;100.00
42591;BME280;28218;53.342;-6.216;2023-05-19T11:18:58;103069.84;;;17.63;100.00
42591;BME280;28218;53.342;-6.216;2023-05-19T11:21:40;103066.06;;;17.48;100.00
42591;BME280;28218;53.342;-6.216;2023-05-19T11:24:09;103065.25;;;17.48;100.00
42591;BME280;28218;53.342;-6.216;2023-05-19T11:26:41;103073.78;;;17.51;100.00
42591;BME280;28218;53.342;-6.216;2023-05-19T11:29:11;103073.25;;;17.48;100.00
42591;BME280;28218;53.342;-6.216;2023-05-19T11:31:42;103079.03;;;17.43;100.00
42591;BME280;28218;53.342;-6.216;2023-05-19T11:34:10;103081.34;;;17.38;100.00
42591;BME280;28218;53.342;-6.216;2023-05-19T11:36:40;103074.38;;;17.45;100.00
42591;BME280;28218;53.342;-6.216;2023-05-19T11:39:10;103076.81;;;17.56;100.00
42591;BME280;28218;53.342;-6.216;2023-05-19T11:41:39;103071.13;;;17.59;100.00
42591;BME280;28218;53.342;-6.216;2023-05-19T11:44:10;103078.66;;;17.64;100.00
42591;BME280;28218;53.342;-6.216;2023-05-19T11:46:38;103083.50;;;17.60;100.00
42591;BME280;28218;53.342;-6.216;2023-05-19T11:49:07;103076.81;;;17.56;100.00
42591;BME280;28218;53.342;-6.216;2023-05-19T11:51:36;103086.78;;;17.54;100.00
42591;BME280;28218;53.342;-6.216;2023-05-19T11:54:05;103077.09;;;17.53;100.00
42591;BME280;28218;53.342;-6.216;2023-05-19T11:56:36;103080.84;;;17.60;100.00
42591;BME280;28218;53.342;-6.216;2023-05-19T11:59:06;103076.53;;;17.68;100.00
42591;BME280;28218;53.342;-6.216;2023-05-19T12:01:36;103071.28;;;17.76;100.00
42591;BME280;28218;53.342;-6.216;2023-05-19T12:04:07;103083.31;;;17.80;100.00
42591;BME280;28218;53.342;-6.216;2023-05-19T12:06:36;103082.34;;;17.89;100.00
42591;BME280;28218;53.342;-6.216;2023-05-19T12:09:04;103079.63;;;17.81;100.00
42591;BME280;28218;53.342;-6.216;2023-05-19T12:11:33;103077.28;;;17.78;100.00
42591;BME280;28218;53.342;-6.216;2023-05-19T12:14:01;103078.50;;;17.83;100.00
42591;BME280;28218;53.342;-6.216;2023-05-19T12:16:33;103073.34;;;17.90;100.00
42591;BME280;28218;53.342;-6.216;2023-05-19T12:19:04;103082.00;;;17.92;100.00
42591;BME280;28218;53.342;-6.216;2023-05-19T12:21:33;103081.34;;;17.90;100.00
42591;BME280;28218;53.342;-6.216;2023-05-19T12:24:02;103084.84;;;17.91;100.00
42591;BME280;28218;53.342;-6.216;2023-05-19T12:26:32;103073.88;;;17.94;100.00
42591;BME280;28218;53.342;-6.216;2023-05-19T12:29:00;103071.41;;;18.00;100.00
42591;BME280;28218;53.342;-6.216;2023-05-19T12:31:29;103069.25;;;18.04;100.00
42591;BME280;28218;53.342;-6.216;2023-05-19T12:33:57;103062.25;;;18.11;100.00
42591;BME280;28218;53.342;-6.216;2023-05-19T12:36:30;103074.97;;;18.17;100.00
42591;BME280;28218;53.342;-6.216;2023-05-19T12:38:59;103071.66;;;18.23;100.00
42591;BME280;28218;53.342;-6.216;2023-05-19T12:41:28;103072.16;;;18.27;100.00
42591;BME280;28218;53.342;-6.216;2023-05-19T12:43:56;103068.00;;;18.32;100.00
42591;BME280;28218;53.342;-6.216;2023-05-19T12:46:24;103075.53;;;18.37;100.00
42591;BME280;28218;53.342;-6.216;2023-05-19T12:48:57;103075.84;;;18.34;100.00